sensor_id;sensor_type;location;lat;lon;timestamp;P1;durP1;ratioP1;P2;durP2;ratioP2
47589;SDS011;33316;52.298;9.056;2022-10-13T00:01:52;2.85;;;1.67;;
47589;SDS011;33316;52.298;9.056;2022-10-13T00:04:19;4.18;;;1.83;;
47589;SDS011;33316;52.298;9.056;2022-10-13T00:06:46;3.55;;;1.45;;
47589;SDS011;33316;52.298;9.056;2022-10-13T00:09:12;4.72;;;1.90;;
47589;SDS011;33316;52.298;9.056;2022-10-13T00:11:39;4.72;;;1.85;;
47589;SDS011;33316;52.298;9.056;2022-10-13T00:14:06;4.75;;;2.15;;
47589;SDS011;33316;52.298;9.056;2022-10-13T00:16:34;4.00;;;1.65;;
47589;SDS011;33316;52.298;9.056;2022-10-13T00:19:01;3.88;;;1.77;;
47589;SDS011;33316;52.298;9.056;2022-10-13T00:21:28;3.97;;;2.08;;
47589;SDS011;33316;52.298;9.056;2022-10-13T00:23:55;3.33;;;1.85;;
47589;SDS011;33316;52.298;9.056;2022-10-13T00:26:23;4.32;;;1.70;;
47589;SDS011;33316;52.298;9.056;2022-10-13T00:28:51;3.50;;;1.65;;
47589;SDS011;33316;52.298;9.056;2022-10-13T00:31:19;2.53;;;1.75;;
47589;SDS011;33316;52.298;9.056;2022-10-13T00:33:48;2.72;;;1.70;;
47589;SDS011;33316;52.298;9.056;2022-10-13T00:36:16;5.68;;;1.80;;
47589;SDS011;33316;52.298;9.056;2022-10-13T00:38:44;5.13;;;2.08;;
47589;SDS011;33316;52.298;9.056;2022-10-13T00:41:11;4.30;;;2.00;;
47589;SDS011;33316;52.298;9.056;2022-10-13T00:43:48;3.85;;;1.77;;
47589;SDS011;33316;52.298;9.056;2022-10-13T00:46:18;3.35;;;1.80;;
47589;SDS011;33316;52.298;9.056;2022-10-13T00:48:45;2.28;;;1.48;;
47589;SDS011;33316;52.298;9.056;2022-10-13T00:51:14;3.58;;;1.77;;
47589;SDS011;33316;52.298;9.056;2022-10-13T00:53:45;3.03;;;1.58;;
47589;SDS011;33316;52.298;9.056;2022-10-13T00:56:13;3.65;;;1.70;;
47589;SDS011;33316;52.298;9.056;2022-10-13T00:58:42;2.20;;;1.40;;
47589;SDS011;33316;52.298;9.056;2022-10-13T01:01:10;2.67;;;1.83;;
47589;SDS011;33316;52.298;9.056;2022-10-13T01:03:37;3.25;;;1.15;;
47589;SDS011;33316;52.298;9.056;2022-10-13T01:06:04;1.80;;;1.45;;
47589;SDS011;33316;52.298;9.056;2022-10-13T01:08:33;3.08;;;1.60;;
47589;SDS011;33316;52.298;9.056;2022-10-13T01:11:04;3.35;;;1.73;;
47589;SDS011;33316;52.298;9.056;2022-10-13T01:13:43;2.95;;;1.77;;
47589;SDS011;33316;52.298;9.056;2022-10-13T01:16:16;2.45;;;1.77;;
47589;SDS011;33316;52.298;9.056;2022-10-13T01:18:50;4.38;;;1.90;;
47589;SDS011;33316;52.298;9.056;2022-10-13T01:21:27;4.47;;;1.92;;
47589;SDS011;33316;52.298;9.056;2022-10-13T01:27:25;3.65;;;2.15;;
47589;SDS011;33316;52.298;9.056;2022-10-13T01:30:09;2.67;;;1.75;;
47589;SDS011;33316;52.298;9.056;2022-10-13T01:32:57;6.47;;;2.10;;
47589;SDS011;33316;52.298;9.056;2022-10-13T01:38:10;3.97;;;2.30;;
47589;SDS011;33316;52.298;9.056;2022-10-13T01:40:48;4.10;;;2.13;;
47589;SDS011;33316;52.298;9.056;2022-10-13T01:43:22;4.53;;;2.45;;
47589;SDS011;33316;52.298;9.056;2022-10-13T01:45:54;4.10;;;2.35;;
47589;SDS011;33316;52.298;9.056;2022-10-13T01:48:27;3.60;;;2.40;;
47589;SDS011;33316;52.298;9.056;2022-10-13T01:50:54;4.38;;;2.20;;
47589;SDS011;33316;52.298;9.056;2022-10-13T01:53:23;4.75;;;2.10;;
47589;SDS011;33316;52.298;9.056;2022-10-13T01:55:51;5.88;;;2.47;;
47589;SDS011;33316;52.298;9.056;2022-10-13T01:58:21;4.43;;;2.25;;
47589;SDS011;33316;52.298;9.056;2022-10-13T02:00:56;4.88;;;2.40;;
47589;SDS011;33316;52.298;9.056;2022-10-13T02:03:35;5.28;;;2.53;;
47589;SDS011;33316;52.298;9.056;2022-10-13T02:06:15;4.75;;;2.53;;
47589;SDS011;33316;52.298;9.056;2022-10-13T02:08:49;4.88;;;2.47;;
47589;SDS011;33316;52.298;9.056;2022-10-13T02:11:22;4.13;;;2.38;;
47589;SDS011;33316;52.298;9.056;2022-10-13T02:13:51;5.35;;;3.05;;
47589;SDS011;33316;52.298;9.056;2022-10-13T02:16:25;5.43;;;3.15;;
47589;SDS011;33316;52.298;9.056;2022-10-13T02:18:55;4.53;;;2.70;;
47589;SDS011;33316;52.298;9.056;2022-10-13T02:21:23;5.78;;;3.15;;
47589;SDS011;33316;52.298;9.056;2022-10-13T02:23:50;6.82;;;3.67;;
47589;SDS011;33316;52.298;9.056;2022-10-13T02:26:17;6.95;;;3.20;;
47589;SDS011;33316;52.298;9.056;2022-10-13T02:28:44;6.28;;;3.65;;
47589;SDS011;33316;52.298;9.056;2022-10-13T02:31:11;4.03;;;2.67;;
47589;SDS011;33316;52.298;9.056;2022-10-13T02:33:39;4.35;;;3.17;;
47589;SDS011;33316;52.298;9.056;2022-10-13T02:36:06;5.43;;;2.85;;
47589;SDS011;33316;52.298;9.056;2022-10-13T02:38:32;5.65;;;2.70;;
47589;SDS011;33316;52.298;9.056;2022-10-13T02:40:59;6.10;;;2.92;;
47589;SDS011;33316;52.298;9.056;2022-10-13T02:43:26;5.38;;;2.97;;
47589;SDS011;33316;52.298;9.056;2022-10-13T02:45:53;5.13;;;2.90;;
47589;SDS011;33316;52.298;9.056;2022-10-13T02:48:20;5.55;;;2.97;;
47589;SDS011;33316;52.298;9.056;2022-10-13T02:50:48;7.95;;;3.05;;
47589;SDS011;33316;52.298;9.056;2022-10-13T02:53:15;5.25;;;2.85;;
47589;SDS011;33316;52.298;9.056;2022-10-13T02:55:42;6.82;;;2.97;;
47589;SDS011;33316;52.298;9.056;2022-10-13T02:58:09;5.55;;;3.30;;
47589;SDS011;33316;52.298;9.056;2022-10-13T03:00:35;6.50;;;3.33;;
47589;SDS011;33316;52.298;9.056;2022-10-13T03:03:03;11.23;;;3.83;;
47589;SDS011;33316;52.298;9.056;2022-10-13T03:05:30;5.38;;;2.97;;
47589;SDS011;33316;52.298;9.056;2022-10-13T03:07:58;6.07;;;3.53;;
47589;SDS011;33316;52.298;9.056;2022-10-13T03:10:25;7.53;;;3.85;;
47589;SDS011;33316;52.298;9.056;2022-10-13T03:12:53;5.22;;;3.03;;
47589;SDS011;33316;52.298;9.056;2022-10-13T03:15:20;6.32;;;3.38;;
47589;SDS011;33316;52.298;9.056;2022-10-13T03:17:47;4.63;;;2.85;;
47589;SDS011;33316;52.298;9.056;2022-10-13T03:20:13;6.68;;;3.22;;
47589;SDS011;33316;52.298;9.056;2022-10-13T03:22:41;7.18;;;3.63;;
47589;SDS011;33316;52.298;9.056;2022-10-13T03:25:09;7.03;;;3.63;;
47589;SDS011;33316;52.298;9.056;2022-10-13T03:27:36;5.15;;;3.33;;
47589;SDS011;33316;52.298;9.056;2022-10-13T03:30:03;5.57;;;3.65;;
47589;SDS011;33316;52.298;9.056;2022-10-13T03:32:30;5.15;;;3.03;;
47589;SDS011;33316;52.298;9.056;2022-10-13T03:34:57;4.97;;;2.85;;
47589;SDS011;33316;52.298;9.056;2022-10-13T03:37:24;5.13;;;2.75;;
47589;SDS011;33316;52.298;9.056;2022-10-13T03:39:51;5.63;;;2.83;;
47589;SDS011;33316;52.298;9.056;2022-10-13T03:42:19;6.57;;;3.63;;
47589;SDS011;33316;52.298;9.056;2022-10-13T03:44:46;8.85;;;3.15;;
47589;SDS011;33316;52.298;9.056;2022-10-13T03:47:14;6.15;;;3.05;;
47589;SDS011;33316;52.298;9.056;2022-10-13T03:49:41;8.15;;;3.42;;
47589;SDS011;33316;52.298;9.056;2022-10-13T03:52:08;5.15;;;3.22;;
47589;SDS011;33316;52.298;9.056;2022-10-13T03:54:34;4.72;;;2.90;;
47589;SDS011;33316;52.298;9.056;2022-10-13T03:57:01;4.10;;;2.83;;
47589;SDS011;33316;52.298;9.056;2022-10-13T03:59:29;4.35;;;3.40;;
47589;SDS011;33316;52.298;9.056;2022-10-13T04:01:56;6.45;;;3.30;;
47589;SDS011;33316;52.298;9.056;2022-10-13T04:04:23;5.05;;;3.33;;
47589;SDS011;33316;52.298;9.056;2022-10-13T04:06:50;8.80;;;3.42;;
47589;SDS011;33316;52.298;9.056;2022-10-13T04:09:16;6.38;;;3.83;;
47589;SDS011;33316;52.298;9.056;2022-10-13T04:11:43;5.63;;;3.50;;
47589;SDS011;33316;52.298;9.056;2022-10-13T04:14:10;8.25;;;4.07;;
47589;SDS011;33316;52.298;9.056;2022-10-13T04:16:38;5.30;;;3.30;;
47589;SDS011;33316;52.298;9.056;2022-10-13T04:19:05;5.45;;;3.42;;
47589;SDS011;33316;52.298;9.056;2022-10-13T04:21:33;4.88;;;3.45;;
47589;SDS011;33316;52.298;9.056;2022-10-13T04:24:00;6.90;;;3.55;;
47589;SDS011;33316;52.298;9.056;2022-10-13T04:26:29;6.78;;;3.97;;
47589;SDS011;33316;52.298;9.056;2022-10-13T04:28:58;6.90;;;3.70;;
47589;SDS011;33316;52.298;9.056;2022-10-13T04:31:26;7.35;;;3.92;;
47589;SDS011;33316;52.298;9.056;2022-10-13T04:33:56;8.93;;;3.80;;
47589;SDS011;33316;52.298;9.056;2022-10-13T04:36:23;8.25;;;3.97;;
47589;SDS011;33316;52.298;9.056;2022-10-13T04:38:51;5.80;;;3.75;;
47589;SDS011;33316;52.298;9.056;2022-10-13T04:41:18;6.40;;;4.28;;
47589;SDS011;33316;52.298;9.056;2022-10-13T04:43:46;7.55;;;4.07;;
47589;SDS011;33316;52.298;9.056;2022-10-13T04:46:14;5.30;;;3.65;;
47589;SDS011;33316;52.298;9.056;2022-10-13T04:48:43;7.30;;;4.35;;
47589;SDS011;33316;52.298;9.056;2022-10-13T04:51:13;7.22;;;4.20;;
47589;SDS011;33316;52.298;9.056;2022-10-13T04:53:41;6.80;;;3.70;;
47589;SDS011;33316;52.298;9.056;2022-10-13T04:56:09;7.10;;;4.22;;
47589;SDS011;33316;52.298;9.056;2022-10-13T04:58:38;5.00;;;3.67;;
47589;SDS011;33316;52.298;9.056;2022-10-13T05:01:06;5.50;;;3.55;;
47589;SDS011;33316;52.298;9.056;2022-10-13T05:03:37;8.00;;;4.03;;
47589;SDS011;33316;52.298;9.056;2022-10-13T05:06:04;6.57;;;4.03;;
47589;SDS011;33316;52.298;9.056;2022-10-13T05:08:33;6.75;;;4.47;;
47589;SDS011;33316;52.298;9.056;2022-10-13T05:11:01;7.00;;;4.30;;
47589;SDS011;33316;52.298;9.056;2022-10-13T05:13:28;7.28;;;4.28;;
47589;SDS011;33316;52.298;9.056;2022-10-13T05:15:55;8.88;;;3.83;;
47589;SDS011;33316;52.298;9.056;2022-10-13T05:18:22;6.57;;;3.92;;
47589;SDS011;33316;52.298;9.056;2022-10-13T05:20:50;5.10;;;3.58;;
47589;SDS011;33316;52.298;9.056;2022-10-13T05:23:16;8.35;;;3.85;;
47589;SDS011;33316;52.298;9.056;2022-10-13T05:25:45;5.45;;;3.75;;
47589;SDS011;33316;52.298;9.056;2022-10-13T05:28:12;7.32;;;4.40;;
47589;SDS011;33316;52.298;9.056;2022-10-13T05:30:47;6.35;;;3.97;;
47589;SDS011;33316;52.298;9.056;2022-10-13T05:33:14;7.72;;;3.80;;
47589;SDS011;33316;52.298;9.056;2022-10-13T05:35:40;7.22;;;3.85;;
47589;SDS011;33316;52.298;9.056;2022-10-13T05:38:07;6.60;;;4.18;;
47589;SDS011;33316;52.298;9.056;2022-10-13T05:40:34;6.32;;;3.72;;
47589;SDS011;33316;52.298;9.056;2022-10-13T05:43:02;9.82;;;4.55;;
47589;SDS011;33316;52.298;9.056;2022-10-13T05:45:29;9.07;;;4.78;;
47589;SDS011;33316;52.298;9.056;2022-10-13T05:47:58;6.50;;;4.05;;
47589;SDS011;33316;52.298;9.056;2022-10-13T05:50:24;6.22;;;3.65;;
47589;SDS011;33316;52.298;9.056;2022-10-13T05:52:51;8.00;;;3.92;;
47589;SDS011;33316;52.298;9.056;2022-10-13T05:55:18;7.28;;;4.38;;
47589;SDS011;33316;52.298;9.056;2022-10-13T05:57:46;6.63;;;4.15;;
47589;SDS011;33316;52.298;9.056;2022-10-13T06:00:18;7.53;;;4.35;;
47589;SDS011;33316;52.298;9.056;2022-10-13T06:02:46;6.25;;;3.65;;
47589;SDS011;33316;52.298;9.056;2022-10-13T06:05:19;5.22;;;3.67;;
47589;SDS011;33316;52.298;9.056;2022-10-13T06:07:47;4.82;;;3.22;;
47589;SDS011;33316;52.298;9.056;2022-10-13T06:10:14;6.97;;;3.70;;
47589;SDS011;33316;52.298;9.056;2022-10-13T06:12:41;4.55;;;3.30;;
47589;SDS011;33316;52.298;9.056;2022-10-13T06:15:08;7.00;;;4.43;;
47589;SDS011;33316;52.298;9.056;2022-10-13T06:17:37;7.68;;;4.53;;
47589;SDS011;33316;52.298;9.056;2022-10-13T06:20:05;8.80;;;4.30;;
47589;SDS011;33316;52.298;9.056;2022-10-13T06:22:33;8.00;;;4.25;;
47589;SDS011;33316;52.298;9.056;2022-10-13T06:25:00;6.97;;;4.22;;
47589;SDS011;33316;52.298;9.056;2022-10-13T06:27:27;6.15;;;4.13;;
47589;SDS011;33316;52.298;9.056;2022-10-13T06:29:54;7.65;;;4.18;;
47589;SDS011;33316;52.298;9.056;2022-10-13T06:32:21;7.72;;;5.28;;
47589;SDS011;33316;52.298;9.056;2022-10-13T06:34:49;6.78;;;3.90;;
47589;SDS011;33316;52.298;9.056;2022-10-13T06:37:16;6.90;;;3.90;;
47589;SDS011;33316;52.298;9.056;2022-10-13T06:39:43;7.35;;;3.85;;
47589;SDS011;33316;52.298;9.056;2022-10-13T06:42:10;7.65;;;4.55;;
47589;SDS011;33316;52.298;9.056;2022-10-13T06:44:37;9.30;;;4.70;;
47589;SDS011;33316;52.298;9.056;2022-10-13T06:47:04;7.68;;;4.10;;
47589;SDS011;33316;52.298;9.056;2022-10-13T06:49:31;6.63;;;4.00;;
47589;SDS011;33316;52.298;9.056;2022-10-13T06:51:59;6.80;;;4.15;;
47589;SDS011;33316;52.298;9.056;2022-10-13T06:54:26;7.38;;;3.75;;
47589;SDS011;33316;52.298;9.056;2022-10-13T06:56:53;8.98;;;3.53;;
47589;SDS011;33316;52.298;9.056;2022-10-13T06:59:19;6.13;;;3.75;;
47589;SDS011;33316;52.298;9.056;2022-10-13T07:01:46;6.38;;;4.20;;
47589;SDS011;33316;52.298;9.056;2022-10-13T07:04:15;7.50;;;3.90;;
47589;SDS011;33316;52.298;9.056;2022-10-13T07:06:42;8.23;;;4.25;;
47589;SDS011;33316;52.298;9.056;2022-10-13T07:09:10;5.05;;;3.78;;
47589;SDS011;33316;52.298;9.056;2022-10-13T07:11:37;8.68;;;4.32;;
47589;SDS011;33316;52.298;9.056;2022-10-13T07:14:03;8.65;;;5.28;;
47589;SDS011;33316;52.298;9.056;2022-10-13T07:16:30;9.20;;;5.60;;
47589;SDS011;33316;52.298;9.056;2022-10-13T07:18:57;9.02;;;4.93;;
47589;SDS011;33316;52.298;9.056;2022-10-13T07:21:24;6.65;;;4.72;;
47589;SDS011;33316;52.298;9.056;2022-10-13T07:23:51;9.25;;;5.45;;
47589;SDS011;33316;52.298;9.056;2022-10-13T07:26:19;10.38;;;5.60;;
47589;SDS011;33316;52.298;9.056;2022-10-13T07:28:47;8.98;;;4.63;;
47589;SDS011;33316;52.298;9.056;2022-10-13T07:31:15;9.70;;;4.55;;
47589;SDS011;33316;52.298;9.056;2022-10-13T07:33:47;10.32;;;4.63;;
47589;SDS011;33316;52.298;9.056;2022-10-13T07:36:17;7.82;;;4.40;;
47589;SDS011;33316;52.298;9.056;2022-10-13T07:38:44;8.18;;;4.22;;
47589;SDS011;33316;52.298;9.056;2022-10-13T07:41:14;11.10;;;4.95;;
47589;SDS011;33316;52.298;9.056;2022-10-13T07:43:42;10.73;;;4.68;;
47589;SDS011;33316;52.298;9.056;2022-10-13T07:46:09;7.03;;;4.82;;
47589;SDS011;33316;52.298;9.056;2022-10-13T07:48:37;11.95;;;5.03;;
47589;SDS011;33316;52.298;9.056;2022-10-13T07:51:08;9.93;;;4.97;;
47589;SDS011;33316;52.298;9.056;2022-10-13T07:53:36;8.98;;;4.65;;
47589;SDS011;33316;52.298;9.056;2022-10-13T07:56:07;9.60;;;4.68;;
47589;SDS011;33316;52.298;9.056;2022-10-13T07:58:37;9.32;;;5.10;;
47589;SDS011;33316;52.298;9.056;2022-10-13T08:01:07;8.35;;;4.38;;
47589;SDS011;33316;52.298;9.056;2022-10-13T08:03:34;9.02;;;4.45;;
47589;SDS011;33316;52.298;9.056;2022-10-13T08:06:02;9.40;;;4.78;;
47589;SDS011;33316;52.298;9.056;2022-10-13T08:08:30;8.95;;;4.95;;
47589;SDS011;33316;52.298;9.056;2022-10-13T08:10:59;7.00;;;4.60;;
47589;SDS011;33316;52.298;9.056;2022-10-13T08:13:27;8.20;;;5.00;;
47589;SDS011;33316;52.298;9.056;2022-10-13T08:15:58;8.38;;;5.13;;
47589;SDS011;33316;52.298;9.056;2022-10-13T08:18:29;9.00;;;4.45;;
47589;SDS011;33316;52.298;9.056;2022-10-13T08:20:58;6.57;;;4.50;;
47589;SDS011;33316;52.298;9.056;2022-10-13T08:23:26;12.03;;;4.67;;
47589;SDS011;33316;52.298;9.056;2022-10-13T08:25:56;8.40;;;4.20;;
47589;SDS011;33316;52.298;9.056;2022-10-13T08:28:24;7.18;;;4.30;;
47589;SDS011;33316;52.298;9.056;2022-10-13T08:30:53;6.07;;;3.97;;
47589;SDS011;33316;52.298;9.056;2022-10-13T08:33:21;6.80;;;4.22;;
47589;SDS011;33316;52.298;9.056;2022-10-13T08:35:54;7.93;;;4.28;;
47589;SDS011;33316;52.298;9.056;2022-10-13T08:38:21;6.95;;;4.45;;
47589;SDS011;33316;52.298;9.056;2022-10-13T08:40:48;8.30;;;4.10;;
47589;SDS011;33316;52.298;9.056;2022-10-13T08:43:20;7.13;;;4.10;;
47589;SDS011;33316;52.298;9.056;2022-10-13T08:45:49;10.20;;;4.13;;
47589;SDS011;33316;52.298;9.056;2022-10-13T08:48:17;8.13;;;4.40;;
47589;SDS011;33316;52.298;9.056;2022-10-13T08:50:49;7.47;;;3.65;;
47589;SDS011;33316;52.298;9.056;2022-10-13T08:53:24;9.70;;;4.78;;
47589;SDS011;33316;52.298;9.056;2022-10-13T08:55:54;9.32;;;4.10;;
47589;SDS011;33316;52.298;9.056;2022-10-13T08:58:24;7.85;;;4.50;;
47589;SDS011;33316;52.298;9.056;2022-10-13T09:00:57;8.02;;;4.72;;
47589;SDS011;33316;52.298;9.056;2022-10-13T09:03:29;7.22;;;4.13;;
47589;SDS011;33316;52.298;9.056;2022-10-13T09:06:02;6.22;;;4.68;;
47589;SDS011;33316;52.298;9.056;2022-10-13T09:08:38;6.40;;;4.35;;
47589;SDS011;33316;52.298;9.056;2022-10-13T09:11:08;8.80;;;4.05;;
47589;SDS011;33316;52.298;9.056;2022-10-13T09:13:36;8.90;;;4.18;;
47589;SDS011;33316;52.298;9.056;2022-10-13T09:16:05;5.53;;;3.92;;
47589;SDS011;33316;52.298;9.056;2022-10-13T09:18:33;9.63;;;4.22;;
47589;SDS011;33316;52.298;9.056;2022-10-13T09:21:14;5.97;;;3.63;;
47589;SDS011;33316;52.298;9.056;2022-10-13T09:23:48;5.35;;;3.88;;
47589;SDS011;33316;52.298;9.056;2022-10-13T09:26:17;6.18;;;3.83;;
47589;SDS011;33316;52.298;9.056;2022-10-13T09:28:47;7.47;;;3.58;;
47589;SDS011;33316;52.298;9.056;2022-10-13T09:31:18;5.13;;;3.50;;
47589;SDS011;33316;52.298;9.056;2022-10-13T09:33:55;5.68;;;3.05;;
47589;SDS011;33316;52.298;9.056;2022-10-13T09:36:23;7.75;;;3.78;;
47589;SDS011;33316;52.298;9.056;2022-10-13T09:39:05;9.32;;;4.20;;
47589;SDS011;33316;52.298;9.056;2022-10-13T09:41:40;5.85;;;3.03;;
47589;SDS011;33316;52.298;9.056;2022-10-13T09:44:09;6.03;;;3.88;;
47589;SDS011;33316;52.298;9.056;2022-10-13T09:46:43;7.85;;;3.92;;
47589;SDS011;33316;52.298;9.056;2022-10-13T09:49:22;7.68;;;4.22;;
47589;SDS011;33316;52.298;9.056;2022-10-13T09:51:58;8.13;;;3.90;;
47589;SDS011;33316;52.298;9.056;2022-10-13T09:54:32;6.78;;;3.67;;
47589;SDS011;33316;52.298;9.056;2022-10-13T09:57:06;10.93;;;3.72;;
47589;SDS011;33316;52.298;9.056;2022-10-13T09:59:45;7.60;;;3.97;;
47589;SDS011;33316;52.298;9.056;2022-10-13T10:02:18;6.38;;;4.03;;
47589;SDS011;33316;52.298;9.056;2022-10-13T10:04:54;6.53;;;3.47;;
47589;SDS011;33316;52.298;9.056;2022-10-13T10:07:29;6.72;;;3.80;;
47589;SDS011;33316;52.298;9.056;2022-10-13T10:10:00;6.22;;;3.30;;
47589;SDS011;33316;52.298;9.056;2022-10-13T10:12:31;6.68;;;3.97;;
47589;SDS011;33316;52.298;9.056;2022-10-13T10:15:02;6.20;;;3.47;;
47589;SDS011;33316;52.298;9.056;2022-10-13T10:17:42;5.53;;;3.00;;
47589;SDS011;33316;52.298;9.056;2022-10-13T10:20:24;6.78;;;3.38;;
47589;SDS011;33316;52.298;9.056;2022-10-13T10:23:02;6.55;;;3.60;;
47589;SDS011;33316;52.298;9.056;2022-10-13T10:25:36;6.18;;;4.07;;
47589;SDS011;33316;52.298;9.056;2022-10-13T10:28:31;8.57;;;3.95;;
47589;SDS011;33316;52.298;9.056;2022-10-13T10:31:20;6.05;;;3.28;;
47589;SDS011;33316;52.298;9.056;2022-10-13T10:34:02;6.28;;;3.40;;
47589;SDS011;33316;52.298;9.056;2022-10-13T10:36:38;6.75;;;3.42;;
47589;SDS011;33316;52.298;9.056;2022-10-13T10:39:14;5.88;;;3.75;;
47589;SDS011;33316;52.298;9.056;2022-10-13T10:41:48;6.57;;;3.40;;
47589;SDS011;33316;52.298;9.056;2022-10-13T10:44:23;5.68;;;3.40;;
47589;SDS011;33316;52.298;9.056;2022-10-13T10:46:56;7.63;;;3.67;;
47589;SDS011;33316;52.298;9.056;2022-10-13T10:49:27;6.53;;;3.50;;
47589;SDS011;33316;52.298;9.056;2022-10-13T10:51:56;7.25;;;3.10;;
47589;SDS011;33316;52.298;9.056;2022-10-13T10:54:25;7.57;;;3.55;;
47589;SDS011;33316;52.298;9.056;2022-10-13T10:57:02;4.35;;;3.20;;
47589;SDS011;33316;52.298;9.056;2022-10-13T10:59:39;6.70;;;3.38;;
47589;SDS011;33316;52.298;9.056;2022-10-13T11:02:18;6.75;;;3.15;;
47589;SDS011;33316;52.298;9.056;2022-10-13T11:05:09;5.65;;;3.45;;
47589;SDS011;33316;52.298;9.056;2022-10-13T11:10:23;4.82;;;2.88;;
47589;SDS011;33316;52.298;9.056;2022-10-13T11:15:47;6.65;;;3.15;;
47589;SDS011;33316;52.298;9.056;2022-10-13T11:21:23;4.82;;;2.45;;
47589;SDS011;33316;52.298;9.056;2022-10-13T11:23:50;7.03;;;3.08;;
47589;SDS011;33316;52.298;9.056;2022-10-13T11:29:18;8.48;;;2.55;;
47589;SDS011;33316;52.298;9.056;2022-10-13T11:35:19;5.57;;;2.60;;
47589;SDS011;33316;52.298;9.056;2022-10-13T11:40:59;4.75;;;3.10;;
47589;SDS011;33316;52.298;9.056;2022-10-13T11:43:42;4.65;;;3.13;;
47589;SDS011;33316;52.298;9.056;2022-10-13T11:49:03;5.28;;;3.40;;
47589;SDS011;33316;52.298;9.056;2022-10-13T11:51:44;7.85;;;3.20;;
47589;SDS011;33316;52.298;9.056;2022-10-13T11:54:20;6.30;;;3.00;;
47589;SDS011;33316;52.298;9.056;2022-10-13T11:56:56;6.78;;;2.92;;
47589;SDS011;33316;52.298;9.056;2022-10-13T11:59:24;6.15;;;3.35;;
47589;SDS011;33316;52.298;9.056;2022-10-13T12:01:54;9.05;;;4.03;;
47589;SDS011;33316;52.298;9.056;2022-10-13T12:04:25;5.50;;;3.03;;
47589;SDS011;33316;52.298;9.056;2022-10-13T12:06:54;6.28;;;3.58;;
47589;SDS011;33316;52.298;9.056;2022-10-13T12:09:24;7.55;;;3.70;;
47589;SDS011;33316;52.298;9.056;2022-10-13T12:11:56;8.13;;;3.40;;
47589;SDS011;33316;52.298;9.056;2022-10-13T12:14:26;5.78;;;3.10;;
47589;SDS011;33316;52.298;9.056;2022-10-13T12:16:57;4.85;;;2.25;;
47589;SDS011;33316;52.298;9.056;2022-10-13T12:19:28;8.48;;;2.88;;
47589;SDS011;33316;52.298;9.056;2022-10-13T12:21:56;5.50;;;3.33;;
47589;SDS011;33316;52.298;9.056;2022-10-13T12:24:24;5.40;;;2.90;;
47589;SDS011;33316;52.298;9.056;2022-10-13T12:26:53;6.40;;;2.97;;
47589;SDS011;33316;52.298;9.056;2022-10-13T12:29:22;5.30;;;3.10;;
47589;SDS011;33316;52.298;9.056;2022-10-13T12:31:51;4.88;;;2.38;;
47589;SDS011;33316;52.298;9.056;2022-10-13T12:34:20;4.30;;;2.30;;
47589;SDS011;33316;52.298;9.056;2022-10-13T12:36:53;6.22;;;2.72;;
47589;SDS011;33316;52.298;9.056;2022-10-13T12:39:22;5.50;;;2.53;;
47589;SDS011;33316;52.298;9.056;2022-10-13T12:41:50;5.28;;;2.50;;
47589;SDS011;33316;52.298;9.056;2022-10-13T12:44:19;3.13;;;2.15;;
47589;SDS011;33316;52.298;9.056;2022-10-13T12:46:50;4.95;;;2.72;;
47589;SDS011;33316;52.298;9.056;2022-10-13T12:49:21;8.20;;;2.50;;
47589;SDS011;33316;52.298;9.056;2022-10-13T12:51:50;3.50;;;2.15;;
47589;SDS011;33316;52.298;9.056;2022-10-13T12:54:21;4.22;;;2.17;;
47589;SDS011;33316;52.298;9.056;2022-10-13T12:59:20;3.67;;;1.88;;
47589;SDS011;33316;52.298;9.056;2022-10-13T13:01:51;3.97;;;2.10;;
47589;SDS011;33316;52.298;9.056;2022-10-13T13:04:30;4.28;;;2.40;;
47589;SDS011;33316;52.298;9.056;2022-10-13T13:09:59;6.88;;;2.55;;
47589;SDS011;33316;52.298;9.056;2022-10-13T13:12:29;4.75;;;2.42;;
47589;SDS011;33316;52.298;9.056;2022-10-13T13:14:56;4.47;;;2.05;;
47589;SDS011;33316;52.298;9.056;2022-10-13T13:17:24;4.53;;;2.35;;
47589;SDS011;33316;52.298;9.056;2022-10-13T13:19:53;3.50;;;1.60;;
47589;SDS011;33316;52.298;9.056;2022-10-13T13:22:21;5.93;;;2.47;;
47589;SDS011;33316;52.298;9.056;2022-10-13T13:24:50;5.00;;;2.25;;
47589;SDS011;33316;52.298;9.056;2022-10-13T13:27:19;4.78;;;1.80;;
47589;SDS011;33316;52.298;9.056;2022-10-13T13:29:49;4.50;;;2.28;;
47589;SDS011;33316;52.298;9.056;2022-10-13T13:32:17;6.78;;;2.00;;
47589;SDS011;33316;52.298;9.056;2022-10-13T13:34:45;3.58;;;1.92;;
47589;SDS011;33316;52.298;9.056;2022-10-13T13:37:21;3.78;;;1.85;;
47589;SDS011;33316;52.298;9.056;2022-10-13T13:39:53;5.22;;;2.15;;
47589;SDS011;33316;52.298;9.056;2022-10-13T13:42:20;3.70;;;1.73;;
47589;SDS011;33316;52.298;9.056;2022-10-13T13:44:47;4.18;;;2.05;;
47589;SDS011;33316;52.298;9.056;2022-10-13T13:47:14;3.85;;;1.92;;
47589;SDS011;33316;52.298;9.056;2022-10-13T13:49:43;2.88;;;1.63;;
47589;SDS011;33316;52.298;9.056;2022-10-13T13:52:09;4.55;;;1.40;;
47589;SDS011;33316;52.298;9.056;2022-10-13T13:54:36;6.72;;;1.40;;
47589;SDS011;33316;52.298;9.056;2022-10-13T13:57:04;5.72;;;2.17;;
47589;SDS011;33316;52.298;9.056;2022-10-13T13:59:31;4.50;;;1.85;;
47589;SDS011;33316;52.298;9.056;2022-10-13T14:01:58;2.80;;;1.83;;
47589;SDS011;33316;52.298;9.056;2022-10-13T14:04:25;2.83;;;1.52;;
47589;SDS011;33316;52.298;9.056;2022-10-13T14:06:52;2.78;;;1.42;;
47589;SDS011;33316;52.298;9.056;2022-10-13T14:09:19;4.57;;;2.10;;
47589;SDS011;33316;52.298;9.056;2022-10-13T14:11:46;4.38;;;1.90;;
47589;SDS011;33316;52.298;9.056;2022-10-13T14:14:14;3.75;;;1.92;;
47589;SDS011;33316;52.298;9.056;2022-10-13T14:16:41;4.38;;;1.92;;
47589;SDS011;33316;52.298;9.056;2022-10-13T14:19:07;4.85;;;1.83;;
47589;SDS011;33316;52.298;9.056;2022-10-13T14:21:34;3.78;;;1.63;;
47589;SDS011;33316;52.298;9.056;2022-10-13T14:24:02;4.35;;;2.05;;
47589;SDS011;33316;52.298;9.056;2022-10-13T14:26:29;3.55;;;1.73;;
47589;SDS011;33316;52.298;9.056;2022-10-13T14:28:56;5.95;;;2.53;;
47589;SDS011;33316;52.298;9.056;2022-10-13T14:31:24;5.82;;;2.22;;
47589;SDS011;33316;52.298;9.056;2022-10-13T14:33:51;5.50;;;2.40;;
47589;SDS011;33316;52.298;9.056;2022-10-13T14:36:18;4.72;;;2.05;;
47589;SDS011;33316;52.298;9.056;2022-10-13T14:38:45;3.92;;;1.80;;
47589;SDS011;33316;52.298;9.056;2022-10-13T14:41:11;2.53;;;1.80;;
47589;SDS011;33316;52.298;9.056;2022-10-13T14:43:40;2.80;;;1.50;;
47589;SDS011;33316;52.298;9.056;2022-10-13T14:46:07;4.75;;;1.50;;
47589;SDS011;33316;52.298;9.056;2022-10-13T14:48:37;5.03;;;1.77;;
47589;SDS011;33316;52.298;9.056;2022-10-13T14:51:04;2.92;;;1.58;;
47589;SDS011;33316;52.298;9.056;2022-10-13T14:53:32;3.53;;;1.23;;
47589;SDS011;33316;52.298;9.056;2022-10-13T14:55:59;2.97;;;1.40;;
47589;SDS011;33316;52.298;9.056;2022-10-13T14:58:26;4.07;;;1.30;;
47589;SDS011;33316;52.298;9.056;2022-10-13T15:00:53;1.98;;;1.27;;
47589;SDS011;33316;52.298;9.056;2022-10-13T15:03:20;2.17;;;1.40;;
47589;SDS011;33316;52.298;9.056;2022-10-13T15:05:49;4.70;;;1.83;;
47589;SDS011;33316;52.298;9.056;2022-10-13T15:08:15;4.03;;;1.58;;
47589;SDS011;33316;52.298;9.056;2022-10-13T15:10:42;1.65;;;1.08;;
47589;SDS011;33316;52.298;9.056;2022-10-13T15:13:09;5.07;;;1.48;;
47589;SDS011;33316;52.298;9.056;2022-10-13T15:15:36;3.28;;;1.48;;
47589;SDS011;33316;52.298;9.056;2022-10-13T15:18:10;3.38;;;1.17;;
47589;SDS011;33316;52.298;9.056;2022-10-13T15:20:37;3.08;;;1.60;;
47589;SDS011;33316;52.298;9.056;2022-10-13T15:23:05;3.45;;;1.40;;
47589;SDS011;33316;52.298;9.056;2022-10-13T15:25:32;3.72;;;1.70;;
47589;SDS011;33316;52.298;9.056;2022-10-13T15:27:59;3.33;;;1.70;;
47589;SDS011;33316;52.298;9.056;2022-10-13T15:30:26;4.68;;;2.78;;
47589;SDS011;33316;52.298;9.056;2022-10-13T15:32:52;7.95;;;4.93;;
47589;SDS011;33316;52.298;9.056;2022-10-13T15:35:19;9.07;;;5.32;;